Kalmar Nyckel — WCY3589 — position and weather

sailwx.info

Track history (hours):
 
Tides and Currents Weather Stations Pressure Air Temp Water Temp Dewpoint Dewpoint Depression Visibility Wind Speed Wind Dir Waves Ship Positions

Kalmar Nyckel (United States)

Ship's website: http://www.kalmarnyckel.org/

Owner: KALMAR NYCKEL FOUNDATION, WILMINGTON, DE. More information available from US FCC via Universal Licensing System.

Last reported at 2017-Mar-28 07:34 UTC. Time now 2017-Mar-28 08:19 UTC.
Position N 39°32' W 075°49'.

Length 46 m; draft 3.1 m.

Type: Ship. MMSI: 367004000.

Date/timePositionNaut miles runAvg speedWind from/ knotsBaromVisibWave heightAir tempDewpointWater temp
2017-Mar-28 07:34N 39°32' W 075°49'0 0.0
2017-Mar-28 06:34N 39°32' W 075°49'0 0.0
2017-Mar-28 05:33N 39°32' W 075°49'0 0.0
2017-Mar-28 04:34N 39°32' W 075°49'0 0.0
2017-Mar-28 03:34N 39°32' W 075°49'0 0.0
2017-Mar-28 02:33N 39°32' W 075°49'0 0.0
2017-Mar-28 01:34N 39°32' W 075°49'0 0.0
2017-Mar-28 00:34N 39°32' W 075°49'0 0.0
2017-Mar-27 23:34N 39°32' W 075°49'0 0.0
2017-Mar-27 22:34N 39°32' W 075°49'0 0.0
2017-Mar-27 21:34N 39°32' W 075°49'0 0.1
2017-Mar-27 20:34N 39°32' W 075°49'0 0.0
2017-Mar-27 19:34N 39°32' W 075°49'0 0.4
2017-Mar-27 18:34N 39°32' W 075°48'9 9.1
2017-Mar-27 17:34N 39°33' W 075°37'6 5.8
2017-Mar-27 16:34N 39°39' W 075°34'1 0.9
2017-Mar-27 15:34N 39°39' W 075°33'4 4.0
2017-Mar-27 14:34N 39°43' W 075°32'1 0.9
2017-Mar-27 13:28N 39°44' W 075°32'0 0.0
2017-Mar-27 12:31N 39°44' W 075°32'0 0.0
2017-Mar-27 11:31N 39°44' W 075°32'0 0.0
2017-Mar-27 10:31N 39°44' W 075°32'0 0.0
2017-Mar-27 09:31N 39°44' W 075°32'0 0.0
2017-Mar-27 08:31N 39°44' W 075°32'0 0.0
2017-Mar-27 07:31N 39°44' W 075°32'0 0.0
2017-Mar-27 06:31N 39°44' W 075°32'0 0.0
2017-Mar-27 05:31N 39°44' W 075°32'0 0.0
2017-Mar-27 04:31N 39°44' W 075°32'0 0.0
2017-Mar-27 03:31N 39°44' W 075°32'0 0.0
2017-Mar-27 02:31N 39°44' W 075°32'0 0.0
2017-Mar-27 01:31N 39°44' W 075°32'0 0.0
2017-Mar-27 00:31N 39°44' W 075°32'0 0.0
2017-Mar-26 23:31N 39°44' W 075°32'0 0.0
2017-Mar-26 22:31N 39°44' W 075°32'0 0.0
2017-Mar-26 21:31N 39°44' W 075°32'0 0.0
2017-Mar-26 20:31N 39°44' W 075°32'0 0.0
2017-Mar-26 19:31N 39°44' W 075°32'0 0.0
2017-Mar-26 18:31N 39°44' W 075°32'0 0.0
2017-Mar-26 17:31N 39°44' W 075°32'0 0.0
2017-Mar-26 16:31N 39°44' W 075°32'0 0.0
2017-Mar-26 15:31N 39°44' W 075°32'0 0.0
2017-Mar-26 14:28N 39°44' W 075°32'0 0.0
2017-Mar-26 13:31N 39°44' W 075°32'0 0.0
2017-Mar-26 12:31N 39°44' W 075°32'0 0.0
2017-Mar-26 11:28N 39°44' W 075°32'0 0.0
2017-Mar-26 10:31N 39°44' W 075°32'0 0.0
2017-Mar-26 09:31N 39°44' W 075°32'0 0.0
2017-Mar-26 08:31N 39°44' W 075°32'0 0.0
2017-Mar-26 07:31N 39°44' W 075°32'0 0.0
2017-Mar-26 06:31N 39°44' W 075°32'0 0.0
2017-Mar-26 05:31N 39°44' W 075°32'0 0.0
2017-Mar-26 04:31N 39°44' W 075°32'0 0.0
2017-Mar-26 03:28N 39°44' W 075°32'0 0.0
2017-Mar-26 02:31N 39°44' W 075°32'0 0.0
2017-Mar-26 01:31N 39°44' W 075°32'0 0.0
2017-Mar-26 00:31N 39°44' W 075°32'0 0.0
2017-Mar-25 23:31N 39°44' W 075°32'0 0.0
2017-Mar-25 22:31N 39°44' W 075°32'0 0.0
2017-Mar-25 21:31N 39°44' W 075°32'0 0.0
2017-Mar-25 20:31N 39°44' W 075°32'0 0.0
2017-Mar-25 19:31N 39°44' W 075°32'0 0.0
2017-Mar-25 18:31N 39°44' W 075°32'0 0.0
2017-Mar-25 17:31N 39°44' W 075°32'0 0.0
2017-Mar-25 16:31N 39°44' W 075°32'0 0.0
2017-Mar-25 15:31N 39°44' W 075°32'0 0.0
2017-Mar-25 14:31N 39°44' W 075°32'0 0.0
2017-Mar-25 13:31N 39°44' W 075°32'0 0.0
2017-Mar-25 12:31N 39°44' W 075°32'0 0.0
2017-Mar-25 11:31N 39°44' W 075°32'0 0.0
2017-Mar-25 10:31N 39°44' W 075°32'0 0.0
2017-Mar-25 09:31N 39°44' W 075°32'0 0.0
2017-Mar-25 08:31N 39°44' W 075°32'0 0.0
2017-Mar-25 07:31N 39°44' W 075°32'0 0.0
2017-Mar-25 06:31N 39°44' W 075°32'0 0.0
2017-Mar-25 05:31N 39°44' W 075°32'0 0.0
2017-Mar-25 04:31N 39°44' W 075°32'0 0.0
2017-Mar-25 03:31N 39°44' W 075°32'0 0.0
2017-Mar-25 02:31N 39°44' W 075°32'0 0.0
2017-Mar-25 01:31N 39°44' W 075°32'0 0.0
2017-Mar-25 00:31N 39°44' W 075°32'0 0.0
2017-Mar-24 23:31N 39°44' W 075°32'0 0.0
2017-Mar-24 22:31N 39°44' W 075°32'0 0.0
2017-Mar-24 21:31N 39°44' W 075°32'0 0.0
2017-Mar-24 20:31N 39°44' W 075°32'0 0.0
2017-Mar-24 19:31N 39°44' W 075°32'0 0.0
2017-Mar-24 18:31N 39°44' W 075°32'0 0.0
2017-Mar-24 17:31N 39°44' W 075°32'0 0.0
2017-Mar-24 16:31N 39°44' W 075°32'0 0.0
2017-Mar-24 15:31N 39°44' W 075°32'0 0.0
2017-Mar-24 14:31N 39°44' W 075°32'0 0.0
2017-Mar-24 13:31N 39°44' W 075°32'0 0.0
2017-Mar-24 12:31N 39°44' W 075°32'0 0.0
2017-Mar-24 11:28N 39°44' W 075°32'0 0.0
2017-Mar-24 10:31N 39°44' W 075°32'0 0.0
2017-Mar-24 09:31N 39°44' W 075°32'0 0.0
2017-Mar-24 08:28N 39°44' W 075°32'0 0.0
2017-Mar-24 07:28N 39°44' W 075°32'0 0.0
2017-Mar-24 06:31N 39°44' W 075°32'0 0.0
2017-Mar-24 05:31N 39°44' W 075°32'0 0.0
2017-Mar-24 04:31N 39°44' W 075°32'0 0.0
2017-Mar-24 03:31N 39°44' W 075°32'0 0.0
2017-Mar-24 02:31N 39°44' W 075°32'0 0.0
2017-Mar-24 01:31N 39°44' W 075°32'0 0.0
2017-Mar-24 00:31N 39°44' W 075°32'0 0.0
2017-Mar-23 23:31N 39°44' W 075°32'0 0.0
2017-Mar-23 22:31N 39°44' W 075°32'0 0.0
2017-Mar-23 21:31N 39°44' W 075°32'0 0.0
2017-Mar-23 20:31N 39°44' W 075°32'0 0.0
2017-Mar-23 19:31N 39°44' W 075°32'0 0.0
2017-Mar-23 18:31N 39°44' W 075°32'0 0.0
2017-Mar-23 17:31N 39°44' W 075°32'0 0.0
2017-Mar-23 16:31N 39°44' W 075°32'0 0.0
2017-Mar-23 15:31N 39°44' W 075°32'0 0.0
2017-Mar-23 14:31N 39°44' W 075°32'0 0.0
2017-Mar-23 13:31N 39°44' W 075°32'0 0.0
2017-Mar-23 12:31N 39°44' W 075°32'0 0.0
2017-Mar-23 11:31N 39°44' W 075°32'0 0.0
2017-Mar-23 10:31N 39°44' W 075°32'0 0.0
2017-Mar-23 09:31N 39°44' W 075°32'0 0.0
2017-Mar-23 08:19N 39°44' W 075°32'0 0.0
2017-Mar-23 07:31N 39°44' W 075°32'0 0.0
2017-Mar-23 06:28N 39°44' W 075°32'0 0.0
2017-Mar-23 05:31N 39°44' W 075°32'0 0.0
2017-Mar-23 04:31N 39°44' W 075°32'0 0.0
2017-Mar-23 03:31N 39°44' W 075°32'0 0.0
2017-Mar-23 02:31N 39°44' W 075°32'0 0.0
2017-Mar-23 01:31N 39°44' W 075°32'0 0.0
2017-Mar-23 00:31N 39°44' W 075°32'0 0.0
2017-Mar-22 23:31N 39°44' W 075°32'0 0.0
2017-Mar-22 22:31N 39°44' W 075°32'0 0.0
2017-Mar-22 21:31N 39°44' W 075°32'0 0.0
2017-Mar-22 20:31N 39°44' W 075°32'0 0.0
2017-Mar-22 19:31N 39°44' W 075°32'0 0.0
2017-Mar-22 18:31N 39°44' W 075°32'0 0.0
2017-Mar-22 17:31N 39°44' W 075°32'0 0.0
2017-Mar-22 16:28N 39°44' W 075°32'0 0.0
2017-Mar-22 15:31N 39°44' W 075°32'0 0.0
2017-Mar-22 14:31N 39°44' W 075°32'0 0.0
2017-Mar-22 13:31N 39°44' W 075°32'0 0.0
2017-Mar-22 12:31N 39°44' W 075°32'0 0.0
2017-Mar-22 11:31N 39°44' W 075°32'0 0.0
2017-Mar-22 10:31N 39°44' W 075°32'0 0.0
2017-Mar-22 09:31N 39°44' W 075°32'0 0.0
2017-Mar-22 08:31N 39°44' W 075°32'0 0.0
2017-Mar-22 07:31N 39°44' W 075°32'0 0.0
2017-Mar-22 06:31N 39°44' W 075°32'0 0.0
2017-Mar-22 05:31N 39°44' W 075°32'0 0.0
2017-Mar-22 04:31N 39°44' W 075°32'0 0.0
2017-Mar-22 03:31N 39°44' W 075°32'0 0.0
2017-Mar-22 02:31N 39°44' W 075°32'0 0.0
2017-Mar-22 01:31N 39°44' W 075°32'0 0.0
2017-Mar-22 00:31N 39°44' W 075°32'0 0.0
2017-Mar-21 23:31N 39°44' W 075°32'0 0.0
2017-Mar-21 22:31N 39°44' W 075°32'0 0.0
2017-Mar-21 21:31N 39°44' W 075°32'0 0.0
2017-Mar-21 20:31N 39°44' W 075°32'0 0.0
2017-Mar-21 19:31N 39°44' W 075°32'2 0.1
2017-Mar-20 16:33N 39°43' W 075°31'4 3.9
2017-Mar-20 15:33N 39°40' W 075°33'0 0.4
2017-Mar-20 14:34N 39°39' W 075°34'4 3.8
2017-Mar-20 13:33N 39°42' W 075°31'  
Track history (hours):
 
Tides and Currents Weather Stations Pressure Air Temp Water Temp Dewpoint Dewpoint Depression Visibility Wind Speed Wind Dir Waves Ship Positions

Kalmar Nyckel (United States)

Ship's website: http://www.kalmarnyckel.org/

Owner: KALMAR NYCKEL FOUNDATION, WILMINGTON, DE. More information available from US FCC via Universal Licensing System.

Last reported at 2017-Mar-28 07:34 UTC. Time now 2017-Mar-28 08:19 UTC.
Position N 39°32' W 075°49'.

Length 46 m; draft 3.1 m.

Type: Ship. MMSI: 367004000.

Date/timePositionNaut miles runAvg speedWind from/ knotsBaromVisibWave heightAir tempDewpointWater temp
2017-Mar-28 07:34N 39°32' W 075°49'0 0.0
2017-Mar-28 06:34N 39°32' W 075°49'0 0.0
2017-Mar-28 05:33N 39°32' W 075°49'0 0.0
2017-Mar-28 04:34N 39°32' W 075°49'0 0.0
2017-Mar-28 03:34N 39°32' W 075°49'0 0.0
2017-Mar-28 02:33N 39°32' W 075°49'0 0.0
2017-Mar-28 01:34N 39°32' W 075°49'0 0.0
2017-Mar-28 00:34N 39°32' W 075°49'0 0.0
2017-Mar-27 23:34N 39°32' W 075°49'0 0.0
2017-Mar-27 22:34N 39°32' W 075°49'0 0.0
2017-Mar-27 21:34N 39°32' W 075°49'0 0.1
2017-Mar-27 20:34N 39°32' W 075°49'0 0.0
2017-Mar-27 19:34N 39°32' W 075°49'0 0.4
2017-Mar-27 18:34N 39°32' W 075°48'9 9.1
2017-Mar-27 17:34N 39°33' W 075°37'6 5.8
2017-Mar-27 16:34N 39°39' W 075°34'1 0.9
2017-Mar-27 15:34N 39°39' W 075°33'4 4.0
2017-Mar-27 14:34N 39°43' W 075°32'1 0.9
2017-Mar-27 13:28N 39°44' W 075°32'0 0.0
2017-Mar-27 12:31N 39°44' W 075°32'0 0.0
2017-Mar-27 11:31N 39°44' W 075°32'0 0.0
2017-Mar-27 10:31N 39°44' W 075°32'0 0.0
2017-Mar-27 09:31N 39°44' W 075°32'0 0.0
2017-Mar-27 08:31N 39°44' W 075°32'0 0.0
2017-Mar-27 07:31N 39°44' W 075°32'0 0.0
2017-Mar-27 06:31N 39°44' W 075°32'0 0.0
2017-Mar-27 05:31N 39°44' W 075°32'0 0.0
2017-Mar-27 04:31N 39°44' W 075°32'0 0.0
2017-Mar-27 03:31N 39°44' W 075°32'0 0.0
2017-Mar-27 02:31N 39°44' W 075°32'0 0.0
2017-Mar-27 01:31N 39°44' W 075°32'0 0.0
2017-Mar-27 00:31N 39°44' W 075°32'0 0.0
2017-Mar-26 23:31N 39°44' W 075°32'0 0.0
2017-Mar-26 22:31N 39°44' W 075°32'0 0.0
2017-Mar-26 21:31N 39°44' W 075°32'0 0.0
2017-Mar-26 20:31N 39°44' W 075°32'0 0.0
2017-Mar-26 19:31N 39°44' W 075°32'0 0.0
2017-Mar-26 18:31N 39°44' W 075°32'0 0.0
2017-Mar-26 17:31N 39°44' W 075°32'0 0.0
2017-Mar-26 16:31N 39°44' W 075°32'0 0.0
2017-Mar-26 15:31N 39°44' W 075°32'0 0.0
2017-Mar-26 14:28N 39°44' W 075°32'0 0.0
2017-Mar-26 13:31N 39°44' W 075°32'0 0.0
2017-Mar-26 12:31N 39°44' W 075°32'0 0.0
2017-Mar-26 11:28N 39°44' W 075°32'0 0.0
2017-Mar-26 10:31N 39°44' W 075°32'0 0.0
2017-Mar-26 09:31N 39°44' W 075°32'0 0.0
2017-Mar-26 08:31N 39°44' W 075°32'0 0.0
2017-Mar-26 07:31N 39°44' W 075°32'0 0.0
2017-Mar-26 06:31N 39°44' W 075°32'0 0.0
2017-Mar-26 05:31N 39°44' W 075°32'0 0.0
2017-Mar-26 04:31N 39°44' W 075°32'0 0.0
2017-Mar-26 03:28N 39°44' W 075°32'0 0.0
2017-Mar-26 02:31N 39°44' W 075°32'0 0.0
2017-Mar-26 01:31N 39°44' W 075°32'0 0.0
2017-Mar-26 00:31N 39°44' W 075°32'0 0.0
2017-Mar-25 23:31N 39°44' W 075°32'0 0.0
2017-Mar-25 22:31N 39°44' W 075°32'0 0.0
2017-Mar-25 21:31N 39°44' W 075°32'0 0.0
2017-Mar-25 20:31N 39°44' W 075°32'0 0.0
2017-Mar-25 19:31N 39°44' W 075°32'0 0.0
2017-Mar-25 18:31N 39°44' W 075°32'0 0.0
2017-Mar-25 17:31N 39°44' W 075°32'0 0.0
2017-Mar-25 16:31N 39°44' W 075°32'0 0.0
2017-Mar-25 15:31N 39°44' W 075°32'0 0.0
2017-Mar-25 14:31N 39°44' W 075°32'0 0.0
2017-Mar-25 13:31N 39°44' W 075°32'0 0.0
2017-Mar-25 12:31N 39°44' W 075°32'0 0.0
2017-Mar-25 11:31N 39°44' W 075°32'0 0.0
2017-Mar-25 10:31N 39°44' W 075°32'0 0.0
2017-Mar-25 09:31N 39°44' W 075°32'0 0.0
2017-Mar-25 08:31N 39°44' W 075°32'0 0.0
2017-Mar-25 07:31N 39°44' W 075°32'0 0.0
2017-Mar-25 06:31N 39°44' W 075°32'0 0.0
2017-Mar-25 05:31N 39°44' W 075°32'0 0.0
2017-Mar-25 04:31N 39°44' W 075°32'0 0.0
2017-Mar-25 03:31N 39°44' W 075°32'0 0.0
2017-Mar-25 02:31N 39°44' W 075°32'0 0.0
2017-Mar-25 01:31N 39°44' W 075°32'0 0.0
2017-Mar-25 00:31N 39°44' W 075°32'0 0.0
2017-Mar-24 23:31N 39°44' W 075°32'0 0.0
2017-Mar-24 22:31N 39°44' W 075°32'0 0.0
2017-Mar-24 21:31N 39°44' W 075°32'0 0.0
2017-Mar-24 20:31N 39°44' W 075°32'0 0.0
2017-Mar-24 19:31N 39°44' W 075°32'0 0.0
2017-Mar-24 18:31N 39°44' W 075°32'0 0.0
2017-Mar-24 17:31N 39°44' W 075°32'0 0.0
2017-Mar-24 16:31N 39°44' W 075°32'0 0.0
2017-Mar-24 15:31N 39°44' W 075°32'0 0.0
2017-Mar-24 14:31N 39°44' W 075°32'0 0.0
2017-Mar-24 13:31N 39°44' W 075°32'0 0.0
2017-Mar-24 12:31N 39°44' W 075°32'0 0.0
2017-Mar-24 11:28N 39°44' W 075°32'0 0.0
2017-Mar-24 10:31N 39°44' W 075°32'0 0.0
2017-Mar-24 09:31N 39°44' W 075°32'0 0.0
2017-Mar-24 08:28N 39°44' W 075°32'0 0.0
2017-Mar-24 07:28N 39°44' W 075°32'0 0.0
2017-Mar-24 06:31N 39°44' W 075°32'0 0.0
2017-Mar-24 05:31N 39°44' W 075°32'0 0.0
2017-Mar-24 04:31N 39°44' W 075°32'0 0.0
2017-Mar-24 03:31N 39°44' W 075°32'0 0.0
2017-Mar-24 02:31N 39°44' W 075°32'0 0.0
2017-Mar-24 01:31N 39°44' W 075°32'0 0.0
2017-Mar-24 00:31N 39°44' W 075°32'0 0.0
2017-Mar-23 23:31N 39°44' W 075°32'0 0.0
2017-Mar-23 22:31N 39°44' W 075°32'0 0.0
2017-Mar-23 21:31N 39°44' W 075°32'0 0.0
2017-Mar-23 20:31N 39°44' W 075°32'0 0.0
2017-Mar-23 19:31N 39°44' W 075°32'0 0.0
2017-Mar-23 18:31N 39°44' W 075°32'0 0.0
2017-Mar-23 17:31N 39°44' W 075°32'0 0.0
2017-Mar-23 16:31N 39°44' W 075°32'0 0.0
2017-Mar-23 15:31N 39°44' W 075°32'0 0.0
2017-Mar-23 14:31N 39°44' W 075°32'0 0.0
2017-Mar-23 13:31N 39°44' W 075°32'0 0.0
2017-Mar-23 12:31N 39°44' W 075°32'0 0.0
2017-Mar-23 11:31N 39°44' W 075°32'0 0.0
2017-Mar-23 10:31N 39°44' W 075°32'0 0.0
2017-Mar-23 09:31N 39°44' W 075°32'0 0.0
2017-Mar-23 08:19N 39°44' W 075°32'0 0.0
2017-Mar-23 07:31N 39°44' W 075°32'0 0.0
2017-Mar-23 06:28N 39°44' W 075°32'0 0.0
2017-Mar-23 05:31N 39°44' W 075°32'0 0.0
2017-Mar-23 04:31N 39°44' W 075°32'0 0.0
2017-Mar-23 03:31N 39°44' W 075°32'0 0.0
2017-Mar-23 02:31N 39°44' W 075°32'0 0.0
2017-Mar-23 01:31N 39°44' W 075°32'0 0.0
2017-Mar-23 00:31N 39°44' W 075°32'0 0.0
2017-Mar-22 23:31N 39°44' W 075°32'0 0.0
2017-Mar-22 22:31N 39°44' W 075°32'0 0.0
2017-Mar-22 21:31N 39°44' W 075°32'0 0.0
2017-Mar-22 20:31N 39°44' W 075°32'0 0.0
2017-Mar-22 19:31N 39°44' W 075°32'0 0.0
2017-Mar-22 18:31N 39°44' W 075°32'0 0.0
2017-Mar-22 17:31N 39°44' W 075°32'0 0.0
2017-Mar-22 16:28N 39°44' W 075°32'0 0.0
2017-Mar-22 15:31N 39°44' W 075°32'0 0.0
2017-Mar-22 14:31N 39°44' W 075°32'0 0.0
2017-Mar-22 13:31N 39°44' W 075°32'0 0.0
2017-Mar-22 12:31N 39°44' W 075°32'0 0.0
2017-Mar-22 11:31N 39°44' W 075°32'0 0.0
2017-Mar-22 10:31N 39°44' W 075°32'0 0.0
2017-Mar-22 09:31N 39°44' W 075°32'0 0.0
2017-Mar-22 08:31N 39°44' W 075°32'0 0.0
2017-Mar-22 07:31N 39°44' W 075°32'0 0.0
2017-Mar-22 06:31N 39°44' W 075°32'0 0.0
2017-Mar-22 05:31N 39°44' W 075°32'0 0.0
2017-Mar-22 04:31N 39°44' W 075°32'0 0.0
2017-Mar-22 03:31N 39°44' W 075°32'0 0.0
2017-Mar-22 02:31N 39°44' W 075°32'0 0.0
2017-Mar-22 01:31N 39°44' W 075°32'0 0.0
2017-Mar-22 00:31N 39°44' W 075°32'0 0.0
2017-Mar-21 23:31N 39°44' W 075°32'0 0.0
2017-Mar-21 22:31N 39°44' W 075°32'0 0.0
2017-Mar-21 21:31N 39°44' W 075°32'0 0.0
2017-Mar-21 20:31N 39°44' W 075°32'0 0.0
2017-Mar-21 19:31N 39°44' W 075°32'2 0.1
2017-Mar-20 16:33N 39°43' W 075°31'4 3.9
2017-Mar-20 15:33N 39°40' W 075°33'0 0.4
2017-Mar-20 14:34N 39°39' W 075°34'4 3.8
2017-Mar-20 13:33N 39°42' W 075°31'  

Dump ship's entire track history